sensor_id;sensor_type;location;lat;lon;timestamp;pressure;altitude;pressure_sealevel;temperature;humidity
18749;BME280;9503;53.560;10.246;2023-04-25T00:01:22;99749.59;;;12.82;86.84
18749;BME280;9503;53.560;10.246;2023-04-25T00:03:49;99750.03;;;12.64;89.68
18749;BME280;9503;53.560;10.246;2023-04-25T00:06:17;99756.56;;;13.23;85.43
18749;BME280;9503;53.560;10.246;2023-04-25T00:08:44;99761.50;;;13.55;85.20
18749;BME280;9503;53.560;10.246;2023-04-25T00:11:10;99754.78;;;13.62;84.26
18749;BME280;9503;53.560;10.246;2023-04-25T00:13:37;99761.66;;;13.63;84.66
18749;BME280;9503;53.560;10.246;2023-04-25T00:16:06;99763.41;;;13.23;86.63
18749;BME280;9503;53.560;10.246;2023-04-25T00:18:33;99763.91;;;13.46;85.62
18749;BME280;9503;53.560;10.246;2023-04-25T00:21:00;99759.06;;;13.61;85.14
18749;BME280;9503;53.560;10.246;2023-04-25T00:23:28;99763.06;;;13.47;85.96
18749;BME280;9503;53.560;10.246;2023-04-25T00:25:55;99757.53;;;13.71;84.13
18749;BME280;9503;53.560;10.246;2023-04-25T00:28:21;99768.66;;;12.91;88.73
18749;BME280;9503;53.560;10.246;2023-04-25T00:30:48;99763.50;;;12.91;88.51
18749;BME280;9503;53.560;10.246;2023-04-25T00:33:14;99767.28;;;13.06;86.61
18749;BME280;9503;53.560;10.246;2023-04-25T00:35:41;99774.09;;;13.83;84.37
18749;BME280;9503;53.560;10.246;2023-04-25T00:38:08;99777.38;;;14.20;82.53
18749;BME280;9503;53.560;10.246;2023-04-25T00:40:36;99779.72;;;14.08;83.21
18749;BME280;9503;53.560;10.246;2023-04-25T00:43:04;99777.97;;;14.05;82.46
18749;BME280;9503;53.560;10.246;2023-04-25T00:45:31;99776.22;;;14.04;82.82
18749;BME280;9503;53.560;10.246;2023-04-25T00:47:57;99782.16;;;13.58;83.09
18749;BME280;9503;53.560;10.246;2023-04-25T00:50:24;99785.97;;;12.98;86.00
18749;BME280;9503;53.560;10.246;2023-04-25T00:52:51;99789.38;;;13.34;84.56
18749;BME280;9503;53.560;10.246;2023-04-25T00:55:19;99788.25;;;13.60;83.40
18749;BME280;9503;53.560;10.246;2023-04-25T00:57:47;99787.41;;;13.22;84.04
18749;BME280;9503;53.560;10.246;2023-04-25T01:00:14;99794.25;;;13.61;82.02
18749;BME280;9503;53.560;10.246;2023-04-25T01:02:41;99790.22;;;12.96;81.80
18749;BME280;9503;53.560;10.246;2023-04-25T01:05:08;99792.25;;;13.10;82.95
18749;BME280;9503;53.560;10.246;2023-04-25T01:07:35;99795.50;;;12.66;83.35
18749;BME280;9503;53.560;10.246;2023-04-25T01:10:02;99796.44;;;12.70;84.19
18749;BME280;9503;53.560;10.246;2023-04-25T01:12:29;99801.22;;;13.25;82.47
18749;BME280;9503;53.560;10.246;2023-04-25T01:14:57;99797.72;;;12.86;82.58
18749;BME280;9503;53.560;10.246;2023-04-25T01:17:24;99802.56;;;13.10;80.92
18749;BME280;9503;53.560;10.246;2023-04-25T01:19:50;99798.06;;;13.01;81.21
18749;BME280;9503;53.560;10.246;2023-04-25T01:22:18;99808.09;;;13.26;79.52
18749;BME280;9503;53.560;10.246;2023-04-25T01:24:46;99800.88;;;12.76;80.10
18749;BME280;9503;53.560;10.246;2023-04-25T01:27:13;99800.91;;;12.42;80.80
18749;BME280;9503;53.560;10.246;2023-04-25T01:33:03;99807.22;;;12.90;79.82
18749;BME280;9503;53.560;10.246;2023-04-25T01:35:30;99803.09;;;12.96;79.19
18749;BME280;9503;53.560;10.246;2023-04-25T01:37:58;99813.31;;;12.59;79.34
18749;BME280;9503;53.560;10.246;2023-04-25T01:40:27;99810.94;;;12.66;79.47
18749;BME280;9503;53.560;10.246;2023-04-25T01:42:54;99808.53;;;12.06;79.60
18749;BME280;9503;53.560;10.246;2023-04-25T01:45:21;99811.75;;;12.31;79.39
18749;BME280;9503;53.560;10.246;2023-04-25T01:47:48;99807.38;;;11.97;79.00
18749;BME280;9503;53.560;10.246;2023-04-25T01:50:16;99816.94;;;12.65;77.73
18749;BME280;9503;53.560;10.246;2023-04-25T01:52:43;99824.47;;;12.26;77.76
18749;BME280;9503;53.560;10.246;2023-04-25T01:55:11;99812.84;;;12.07;78.27
18749;BME280;9503;53.560;10.246;2023-04-25T01:57:37;99820.13;;;12.24;77.99
18749;BME280;9503;53.560;10.246;2023-04-25T02:00:06;99813.78;;;12.11;77.79
18749;BME280;9503;53.560;10.246;2023-04-25T02:02:33;99824.63;;;12.32;76.66
18749;BME280;9503;53.560;10.246;2023-04-25T02:05:00;99817.22;;;12.11;75.45
18749;BME280;9503;53.560;10.246;2023-04-25T02:07:27;99822.72;;;11.94;75.92
18749;BME280;9503;53.560;10.246;2023-04-25T02:13:16;99821.28;;;12.35;73.00
18749;BME280;9503;53.560;10.246;2023-04-25T02:15:43;99825.72;;;11.50;73.03
18749;BME280;9503;53.560;10.246;2023-04-25T02:18:09;99837.41;;;11.98;72.57
18749;BME280;9503;53.560;10.246;2023-04-25T02:20:36;99834.53;;;11.87;71.32
18749;BME280;9503;53.560;10.246;2023-04-25T02:23:03;99841.72;;;12.30;70.24
18749;BME280;9503;53.560;10.246;2023-04-25T02:25:30;99848.31;;;12.54;70.01
18749;BME280;9503;53.560;10.246;2023-04-25T02:27:57;99842.91;;;12.43;69.98
18749;BME280;9503;53.560;10.246;2023-04-25T02:30:25;99837.19;;;11.90;70.04
18749;BME280;9503;53.560;10.246;2023-04-25T02:32:51;99845.59;;;12.48;69.13
18749;BME280;9503;53.560;10.246;2023-04-25T02:35:18;99850.50;;;12.07;69.68
18749;BME280;9503;53.560;10.246;2023-04-25T02:37:45;99846.19;;;11.76;70.19
18749;BME280;9503;53.560;10.246;2023-04-25T02:40:11;99843.50;;;12.33;69.20
18749;BME280;9503;53.560;10.246;2023-04-25T02:42:38;99838.38;;;12.03;68.14
18749;BME280;9503;53.560;10.246;2023-04-25T02:45:05;99840.47;;;12.16;68.96
18749;BME280;9503;53.560;10.246;2023-04-25T02:47:33;99840.41;;;12.46;67.69
18749;BME280;9503;53.560;10.246;2023-04-25T02:50:00;99846.41;;;12.13;68.34
18749;BME280;9503;53.560;10.246;2023-04-25T02:52:26;99844.72;;;12.47;67.98
18749;BME280;9503;53.560;10.246;2023-04-25T02:54:53;99847.28;;;12.14;68.76
18749;BME280;9503;53.560;10.246;2023-04-25T02:57:20;99846.97;;;12.03;69.88
18749;BME280;9503;53.560;10.246;2023-04-25T02:59:46;99851.00;;;12.57;68.31
18749;BME280;9503;53.560;10.246;2023-04-25T03:02:13;99847.09;;;11.49;69.96
18749;BME280;9503;53.560;10.246;2023-04-25T03:04:41;99851.78;;;11.91;69.50
18749;BME280;9503;53.560;10.246;2023-04-25T03:07:07;99856.25;;;11.98;69.16
18749;BME280;9503;53.560;10.246;2023-04-25T03:09:34;99857.56;;;11.84;69.50
18749;BME280;9503;53.560;10.246;2023-04-25T03:12:01;99848.44;;;11.67;69.53
18749;BME280;9503;53.560;10.246;2023-04-25T03:48:36;99895.47;;;11.10;66.27
18749;BME280;9503;53.560;10.246;2023-04-25T03:51:03;99897.16;;;11.63;65.26
18749;BME280;9503;53.560;10.246;2023-04-25T03:53:31;99899.72;;;11.37;65.97
18749;BME280;9503;53.560;10.246;2023-04-25T03:55:58;99906.16;;;11.51;65.47
18749;BME280;9503;53.560;10.246;2023-04-25T03:58:24;99898.16;;;10.88;66.37
18749;BME280;9503;53.560;10.246;2023-04-25T04:00:51;99898.19;;;11.15;66.87
18749;BME280;9503;53.560;10.246;2023-04-25T04:03:18;99899.78;;;11.11;66.44
18749;BME280;9503;53.560;10.246;2023-04-25T04:05:46;99902.66;;;11.47;65.06
18749;BME280;9503;53.560;10.246;2023-04-25T04:08:13;99903.31;;;11.69;64.19
18749;BME280;9503;53.560;10.246;2023-04-25T04:10:40;99913.53;;;11.40;65.03
18749;BME280;9503;53.560;10.246;2023-04-25T04:13:06;99919.91;;;11.53;64.41
18749;BME280;9503;53.560;10.246;2023-04-25T04:15:33;99914.50;;;11.17;64.61
18749;BME280;9503;53.560;10.246;2023-04-25T04:17:59;99919.44;;;11.92;62.68
18749;BME280;9503;53.560;10.246;2023-04-25T04:20:30;99914.31;;;11.38;63.57
18749;BME280;9503;53.560;10.246;2023-04-25T04:22:58;99925.28;;;11.06;63.52
18749;BME280;9503;53.560;10.246;2023-04-25T04:25:26;99922.69;;;11.32;63.15
18749;BME280;9503;53.560;10.246;2023-04-25T04:27:53;99924.69;;;11.15;63.48
18749;BME280;9503;53.560;10.246;2023-04-25T04:30:21;99926.50;;;11.18;62.89
18749;BME280;9503;53.560;10.246;2023-04-25T04:32:49;99918.94;;;10.95;62.24
18749;BME280;9503;53.560;10.246;2023-04-25T04:35:16;99927.09;;;11.09;62.44
18749;BME280;9503;53.560;10.246;2023-04-25T04:37:42;99933.09;;;11.37;62.17
18749;BME280;9503;53.560;10.246;2023-04-25T04:40:12;99935.19;;;11.48;62.61
18749;BME280;9503;53.560;10.246;2023-04-25T04:42:41;99933.44;;;11.47;62.07
18749;BME280;9503;53.560;10.246;2023-04-25T04:45:08;99945.41;;;11.47;61.72
18749;BME280;9503;53.560;10.246;2023-04-25T04:47:35;99951.00;;;11.89;61.47
18749;BME280;9503;53.560;10.246;2023-04-25T04:50:02;99950.03;;;12.12;60.10
18749;BME280;9503;53.560;10.246;2023-04-25T04:52:29;99951.03;;;11.62;61.31
18749;BME280;9503;53.560;10.246;2023-04-25T04:54:56;99952.66;;;11.60;60.51
18749;BME280;9503;53.560;10.246;2023-04-25T04:57:25;99953.53;;;11.87;59.44
18749;BME280;9503;53.560;10.246;2023-04-25T04:59:52;99959.44;;;11.83;60.14
18749;BME280;9503;53.560;10.246;2023-04-25T05:02:18;99956.22;;;11.63;60.21
18749;BME280;9503;53.560;10.246;2023-04-25T05:04:45;99966.44;;;11.89;58.94
18749;BME280;9503;53.560;10.246;2023-04-25T05:07:12;99966.00;;;12.32;58.65
18749;BME280;9503;53.560;10.246;2023-04-25T05:09:39;99964.44;;;12.37;58.08
18749;BME280;9503;53.560;10.246;2023-04-25T05:12:06;99961.22;;;12.76;57.48
18749;BME280;9503;53.560;10.246;2023-04-25T05:14:34;99960.38;;;12.45;58.06
18749;BME280;9503;53.560;10.246;2023-04-25T05:17:01;99962.41;;;11.97;58.99
18749;BME280;9503;53.560;10.246;2023-04-25T05:19:29;99972.06;;;12.34;58.51
18749;BME280;9503;53.560;10.246;2023-04-25T05:21:56;99977.25;;;12.36;57.89
18749;BME280;9503;53.560;10.246;2023-04-25T05:24:23;99976.50;;;12.40;57.26
18749;BME280;9503;53.560;10.246;2023-04-25T05:26:49;99977.06;;;12.30;57.88
18749;BME280;9503;53.560;10.246;2023-04-25T05:29:16;99989.22;;;12.05;59.06
18749;BME280;9503;53.560;10.246;2023-04-25T05:31:44;99994.38;;;12.35;57.33
18749;BME280;9503;53.560;10.246;2023-04-25T05:34:11;99994.00;;;11.95;58.16
18749;BME280;9503;53.560;10.246;2023-04-25T05:36:37;99983.13;;;11.49;59.73
18749;BME280;9503;53.560;10.246;2023-04-25T05:39:04;99991.47;;;11.96;59.58
18749;BME280;9503;53.560;10.246;2023-04-25T05:41:31;99991.63;;;12.01;59.76
18749;BME280;9503;53.560;10.246;2023-04-25T05:43:58;99991.31;;;11.65;60.90
18749;BME280;9503;53.560;10.246;2023-04-25T05:46:24;99998.53;;;12.03;61.74
18749;BME280;9503;53.560;10.246;2023-04-25T05:48:52;100001.50;;;12.15;61.85
18749;BME280;9503;53.560;10.246;2023-04-25T05:51:19;100006.53;;;11.58;63.37
18749;BME280;9503;53.560;10.246;2023-04-25T05:53:45;100011.59;;;11.82;63.38
18749;BME280;9503;53.560;10.246;2023-04-25T05:56:12;100006.94;;;11.71;63.24
18749;BME280;9503;53.560;10.246;2023-04-25T05:58:39;100005.09;;;12.21;63.22
18749;BME280;9503;53.560;10.246;2023-04-25T06:01:05;100004.84;;;12.41;61.74
18749;BME280;9503;53.560;10.246;2023-04-25T06:03:32;100008.06;;;12.64;61.38
18749;BME280;9503;53.560;10.246;2023-04-25T06:06:01;100010.56;;;12.63;61.07
18749;BME280;9503;53.560;10.246;2023-04-25T06:08:27;100019.63;;;12.49;61.62
18749;BME280;9503;53.560;10.246;2023-04-25T06:10:54;100028.56;;;12.63;61.07
18749;BME280;9503;53.560;10.246;2023-04-25T06:13:20;100024.69;;;12.47;61.23
18749;BME280;9503;53.560;10.246;2023-04-25T06:15:47;100026.25;;;12.12;62.44
18749;BME280;9503;53.560;10.246;2023-04-25T06:18:14;100018.94;;;13.17;60.88
18749;BME280;9503;53.560;10.246;2023-04-25T06:20:40;100020.25;;;13.03;61.26
18749;BME280;9503;53.560;10.246;2023-04-25T06:23:08;100024.53;;;13.03;61.16
18749;BME280;9503;53.560;10.246;2023-04-25T06:25:35;100022.84;;;13.35;60.17
18749;BME280;9503;53.560;10.246;2023-04-25T06:28:02;100023.00;;;13.09;60.03
18749;BME280;9503;53.560;10.246;2023-04-25T06:30:28;100018.50;;;13.00;60.14
18749;BME280;9503;53.560;10.246;2023-04-25T06:32:55;100021.28;;;13.08;59.64
18749;BME280;9503;53.560;10.246;2023-04-25T06:35:22;100023.78;;;13.38;59.98
18749;BME280;9503;53.560;10.246;2023-04-25T06:37:48;100029.03;;;13.77;59.26
18749;BME280;9503;53.560;10.246;2023-04-25T06:40:16;100019.50;;;13.07;60.53
18749;BME280;9503;53.560;10.246;2023-04-25T06:42:43;100028.69;;;12.97;59.35
18749;BME280;9503;53.560;10.246;2023-04-25T06:45:10;100021.94;;;13.01;59.67
18749;BME280;9503;53.560;10.246;2023-04-25T06:47:37;100029.13;;;13.14;60.71
18749;BME280;9503;53.560;10.246;2023-04-25T06:50:05;100025.97;;;13.23;59.74
18749;BME280;9503;53.560;10.246;2023-04-25T06:52:31;100038.91;;;12.94;60.15
18749;BME280;9503;53.560;10.246;2023-04-25T06:54:58;100039.41;;;13.14;59.71
18749;BME280;9503;53.560;10.246;2023-04-25T06:57:26;100041.22;;;11.98;64.75
18749;BME280;9503;53.560;10.246;2023-04-25T06:59:53;100043.91;;;12.30;63.93
18749;BME280;9503;53.560;10.246;2023-04-25T07:02:19;100043.09;;;12.32;63.72
18749;BME280;9503;53.560;10.246;2023-04-25T07:04:46;100041.97;;;12.51;63.62
18749;BME280;9503;53.560;10.246;2023-04-25T07:07:13;100043.47;;;12.44;64.83
18749;BME280;9503;53.560;10.246;2023-04-25T07:09:40;100044.53;;;12.51;63.77
18749;BME280;9503;53.560;10.246;2023-04-25T07:12:06;100052.63;;;12.35;63.68
18749;BME280;9503;53.560;10.246;2023-04-25T07:14:34;100050.78;;;12.59;62.46
18749;BME280;9503;53.560;10.246;2023-04-25T07:17:01;100050.63;;;13.46;60.51
18749;BME280;9503;53.560;10.246;2023-04-25T07:19:27;100052.06;;;12.75;61.42
18749;BME280;9503;53.560;10.246;2023-04-25T07:21:55;100061.25;;;12.65;61.66
18749;BME280;9503;53.560;10.246;2023-04-25T07:24:21;100057.44;;;13.44;59.97
18749;BME280;9503;53.560;10.246;2023-04-25T07:26:48;100058.38;;;13.48;59.29
18749;BME280;9503;53.560;10.246;2023-04-25T07:29:15;100060.88;;;13.45;59.39
18749;BME280;9503;53.560;10.246;2023-04-25T07:31:43;100066.50;;;13.65;58.00
18749;BME280;9503;53.560;10.246;2023-04-25T07:34:09;100063.38;;;12.50;60.46
18749;BME280;9503;53.560;10.246;2023-04-25T07:36:36;100077.25;;;13.17;59.88
18749;BME280;9503;53.560;10.246;2023-04-25T07:39:03;100099.53;;;13.46;59.65
18749;BME280;9503;53.560;10.246;2023-04-25T07:41:29;100101.34;;;12.59;63.93
18749;BME280;9503;53.560;10.246;2023-04-25T07:43:56;100089.97;;;11.97;65.69
18749;BME280;9503;53.560;10.246;2023-04-25T07:46:22;100082.28;;;11.71;71.10
18749;BME280;9503;53.560;10.246;2023-04-25T07:48:50;100083.91;;;11.95;72.20
18749;BME280;9503;53.560;10.246;2023-04-25T07:51:17;100082.66;;;12.36;71.98
18749;BME280;9503;53.560;10.246;2023-04-25T07:53:45;100082.19;;;11.94;71.84
18749;BME280;9503;53.560;10.246;2023-04-25T07:56:11;100078.34;;;12.35;71.62
18749;BME280;9503;53.560;10.246;2023-04-25T07:58:38;100077.69;;;13.00;70.09
18749;BME280;9503;53.560;10.246;2023-04-25T08:01:05;100086.47;;;13.39;68.73
18749;BME280;9503;53.560;10.246;2023-04-25T08:03:31;100078.38;;;12.09;68.31
18749;BME280;9503;53.560;10.246;2023-04-25T08:05:59;100069.13;;;12.71;66.97
18749;BME280;9503;53.560;10.246;2023-04-25T08:08:26;100065.75;;;13.04;67.01
18749;BME280;9503;53.560;10.246;2023-04-25T08:10:52;100077.56;;;13.27;66.50
18749;BME280;9503;53.560;10.246;2023-04-25T08:13:19;100075.25;;;14.06;64.62
18749;BME280;9503;53.560;10.246;2023-04-25T08:15:46;100078.53;;;13.99;63.39
18749;BME280;9503;53.560;10.246;2023-04-25T08:18:12;100086.56;;;14.49;63.13
18749;BME280;9503;53.560;10.246;2023-04-25T08:20:39;100097.97;;;14.58;60.45
18749;BME280;9503;53.560;10.246;2023-04-25T08:23:07;100101.41;;;15.00;57.91
18749;BME280;9503;53.560;10.246;2023-04-25T08:25:33;100103.81;;;14.51;59.50
18749;BME280;9503;53.560;10.246;2023-04-25T08:28:00;100090.25;;;14.60;60.11
18749;BME280;9503;53.560;10.246;2023-04-25T08:30:28;100110.94;;;13.89;60.70
18749;BME280;9503;53.560;10.246;2023-04-25T08:32:54;100112.00;;;13.01;60.74
18749;BME280;9503;53.560;10.246;2023-04-25T08:35:21;100115.03;;;13.81;59.52
18749;BME280;9503;53.560;10.246;2023-04-25T08:37:48;100124.09;;;13.05;60.88
18749;BME280;9503;53.560;10.246;2023-04-25T08:40:16;100160.44;;;12.57;64.43
18749;BME280;9503;53.560;10.246;2023-04-25T08:42:43;100160.09;;;11.69;68.32
18749;BME280;9503;53.560;10.246;2023-04-25T08:45:10;100163.41;;;11.66;70.15
18749;BME280;9503;53.560;10.246;2023-04-25T08:47:38;100143.13;;;12.25;69.98
18749;BME280;9503;53.560;10.246;2023-04-25T08:50:06;100141.00;;;12.38;70.17
18749;BME280;9503;53.560;10.246;2023-04-25T08:52:36;100142.50;;;12.32;71.59
18749;BME280;9503;53.560;10.246;2023-04-25T08:55:05;100135.06;;;12.69;70.73
18749;BME280;9503;53.560;10.246;2023-04-25T08:57:35;100149.81;;;13.65;69.41
18749;BME280;9503;53.560;10.246;2023-04-25T09:00:02;100147.84;;;13.55;67.99
18749;BME280;9503;53.560;10.246;2023-04-25T09:02:30;100145.13;;;13.82;65.09
18749;BME280;9503;53.560;10.246;2023-04-25T09:04:57;100154.47;;;13.78;65.70
18749;BME280;9503;53.560;10.246;2023-04-25T09:07:24;100161.44;;;14.17;64.69
18749;BME280;9503;53.560;10.246;2023-04-25T09:09:51;100168.91;;;13.73;66.29
18749;BME280;9503;53.560;10.246;2023-04-25T09:12:18;100166.31;;;13.10;67.50
18749;BME280;9503;53.560;10.246;2023-04-25T09:17:41;100166.03;;;13.30;66.63
18749;BME280;9503;53.560;10.246;2023-04-25T09:20:12;100159.13;;;14.28;65.59
18749;BME280;9503;53.560;10.246;2023-04-25T09:22:40;100170.09;;;14.91;64.38
18749;BME280;9503;53.560;10.246;2023-04-25T09:25:09;100170.16;;;15.81;61.64
18749;BME280;9503;53.560;10.246;2023-04-25T09:27:36;100173.63;;;14.59;60.16
18749;BME280;9503;53.560;10.246;2023-04-25T09:30:04;100171.91;;;14.23;62.58
18749;BME280;9503;53.560;10.246;2023-04-25T09:32:32;100175.31;;;14.22;61.07
18749;BME280;9503;53.560;10.246;2023-04-25T09:35:00;100184.06;;;14.27;60.45
18749;BME280;9503;53.560;10.246;2023-04-25T09:37:28;100189.13;;;14.59;59.51
18749;BME280;9503;53.560;10.246;2023-04-25T09:39:56;100193.81;;;15.16;58.34
18749;BME280;9503;53.560;10.246;2023-04-25T09:42:26;100192.44;;;14.91;57.56
18749;BME280;9503;53.560;10.246;2023-04-25T09:44:57;100200.91;;;14.85;57.39
18749;BME280;9503;53.560;10.246;2023-04-25T09:47:26;100216.25;;;15.18;56.93
18749;BME280;9503;53.560;10.246;2023-04-25T09:49:54;100211.56;;;15.01;58.48
18749;BME280;9503;53.560;10.246;2023-04-25T09:52:24;100210.75;;;14.64;57.38
18749;BME280;9503;53.560;10.246;2023-04-25T09:54:51;100217.88;;;14.76;56.17
18749;BME280;9503;53.560;10.246;2023-04-25T09:57:20;100223.94;;;14.42;55.40
18749;BME280;9503;53.560;10.246;2023-04-25T09:59:48;100238.53;;;13.75;57.71
18749;BME280;9503;53.560;10.246;2023-04-25T10:02:16;100241.16;;;12.10;65.95
18749;BME280;9503;53.560;10.246;2023-04-25T10:04:47;100263.19;;;11.79;70.38
18749;BME280;9503;53.560;10.246;2023-04-25T10:07:16;100231.59;;;12.06;70.27
18749;BME280;9503;53.560;10.246;2023-04-25T10:09:48;100242.97;;;12.65;70.10
18749;BME280;9503;53.560;10.246;2023-04-25T10:12:16;100235.25;;;12.65;69.12
18749;BME280;9503;53.560;10.246;2023-04-25T10:14:45;100234.66;;;12.73;68.42
18749;BME280;9503;53.560;10.246;2023-04-25T10:17:13;100230.63;;;12.82;68.74
18749;BME280;9503;53.560;10.246;2023-04-25T10:19:43;100234.66;;;13.91;66.67
18749;BME280;9503;53.560;10.246;2023-04-25T10:22:13;100245.84;;;13.91;67.43
18749;BME280;9503;53.560;10.246;2023-04-25T10:24:42;100237.34;;;14.27;66.12
18749;BME280;9503;53.560;10.246;2023-04-25T10:27:11;100230.66;;;13.69;66.37
18749;BME280;9503;53.560;10.246;2023-04-25T10:29:38;100239.88;;;14.60;62.81
18749;BME280;9503;53.560;10.246;2023-04-25T10:32:05;100232.69;;;14.47;62.54
18749;BME280;9503;53.560;10.246;2023-04-25T10:34:39;100237.78;;;14.10;60.16
18749;BME280;9503;53.560;10.246;2023-04-25T10:37:09;100235.78;;;14.68;58.83
18749;BME280;9503;53.560;10.246;2023-04-25T10:39:38;100247.19;;;16.00;58.21
18749;BME280;9503;53.560;10.246;2023-04-25T10:42:05;100248.91;;;15.15;55.68
18749;BME280;9503;53.560;10.246;2023-04-25T10:44:37;100246.53;;;15.65;53.03
18749;BME280;9503;53.560;10.246;2023-04-25T10:47:06;100248.75;;;14.71;53.72
18749;BME280;9503;53.560;10.246;2023-04-25T10:49:35;100250.84;;;14.87;52.22
18749;BME280;9503;53.560;10.246;2023-04-25T10:52:15;100250.16;;;14.95;53.87
18749;BME280;9503;53.560;10.246;2023-04-25T10:54:46;100244.63;;;15.58;53.79
18749;BME280;9503;53.560;10.246;2023-04-25T10:57:29;100256.16;;;15.72;53.40
18749;BME280;9503;53.560;10.246;2023-04-25T11:00:05;100248.41;;;15.72;53.91
18749;BME280;9503;53.560;10.246;2023-04-25T11:02:37;100247.00;;;15.48;52.92
18749;BME280;9503;53.560;10.246;2023-04-25T11:05:04;100244.31;;;15.85;53.11
18749;BME280;9503;53.560;10.246;2023-04-25T11:07:34;100237.59;;;16.43;51.47
18749;BME280;9503;53.560;10.246;2023-04-25T11:10:04;100236.94;;;16.56;51.41
18749;BME280;9503;53.560;10.246;2023-04-25T11:12:31;100244.13;;;16.72;51.26
18749;BME280;9503;53.560;10.246;2023-04-25T11:15:00;100243.59;;;15.49;53.56
18749;BME280;9503;53.560;10.246;2023-04-25T11:17:28;100243.16;;;15.28;52.73
18749;BME280;9503;53.560;10.246;2023-04-25T11:19:54;100260.03;;;15.53;53.13
18749;BME280;9503;53.560;10.246;2023-04-25T11:22:23;100269.22;;;15.00;53.49
18749;BME280;9503;53.560;10.246;2023-04-25T11:24:50;100266.66;;;14.63;50.78
18749;BME280;9503;53.560;10.246;2023-04-25T11:27:17;100273.84;;;15.55;50.05
18749;BME280;9503;53.560;10.246;2023-04-25T11:29:43;100268.44;;;15.85;50.51
18749;BME280;9503;53.560;10.246;2023-04-25T11:32:11;100279.31;;;14.23;54.75
18749;BME280;9503;53.560;10.246;2023-04-25T11:34:38;100284.13;;;14.42;57.69
18749;BME280;9503;53.560;10.246;2023-04-25T11:37:05;100278.31;;;14.48;57.31
18749;BME280;9503;53.560;10.246;2023-04-25T11:39:31;100277.88;;;14.01;57.82
18749;BME280;9503;53.560;10.246;2023-04-25T11:41:58;100283.06;;;14.02;57.48
18749;BME280;9503;53.560;10.246;2023-04-25T11:44:26;100283.38;;;14.13;56.82
18749;BME280;9503;53.560;10.246;2023-04-25T11:46:53;100282.66;;;14.50;56.05
18749;BME280;9503;53.560;10.246;2023-04-25T11:49:21;100292.09;;;14.84;56.35
18749;BME280;9503;53.560;10.246;2023-04-25T11:51:48;100290.41;;;14.19;55.28
18749;BME280;9503;53.560;10.246;2023-04-25T11:54:15;100295.59;;;14.52;54.93
18749;BME280;9503;53.560;10.246;2023-04-25T11:56:42;100293.09;;;14.55;55.16
18749;BME280;9503;53.560;10.246;2023-04-25T11:59:09;100299.44;;;14.36;55.67
18749;BME280;9503;53.560;10.246;2023-04-25T12:01:37;100292.16;;;14.53;55.67
18749;BME280;9503;53.560;10.246;2023-04-25T12:04:10;100296.09;;;14.07;55.85
18749;BME280;9503;53.560;10.246;2023-04-25T12:06:40;100292.59;;;14.03;56.47
18749;BME280;9503;53.560;10.246;2023-04-25T12:09:08;100298.78;;;14.76;53.97
18749;BME280;9503;53.560;10.246;2023-04-25T12:11:41;100298.50;;;14.32;55.32
18749;BME280;9503;53.560;10.246;2023-04-25T12:14:07;100301.50;;;15.20;54.88
18749;BME280;9503;53.560;10.246;2023-04-25T12:16:41;100308.19;;;16.36;53.83
18749;BME280;9503;53.560;10.246;2023-04-25T12:19:08;100298.09;;;15.60;53.71
18749;BME280;9503;53.560;10.246;2023-04-25T12:21:35;100301.13;;;15.80;53.13
18749;BME280;9503;53.560;10.246;2023-04-25T12:24:14;100301.50;;;16.97;52.83
18749;BME280;9503;53.560;10.246;2023-04-25T12:26:48;100292.50;;;15.42;52.08
18749;BME280;9503;53.560;10.246;2023-04-25T12:29:17;100316.91;;;16.39;51.54
18749;BME280;9503;53.560;10.246;2023-04-25T12:31:43;100297.72;;;16.78;49.18
18749;BME280;9503;53.560;10.246;2023-04-25T12:34:10;100310.38;;;16.61;49.15
18749;BME280;9503;53.560;10.246;2023-04-25T12:36:37;100315.88;;;15.46;47.43
18749;BME280;9503;53.560;10.246;2023-04-25T12:39:04;100308.13;;;15.46;47.74
18749;BME280;9503;53.560;10.246;2023-04-25T12:41:32;100316.16;;;15.59;48.46
18749;BME280;9503;53.560;10.246;2023-04-25T12:43:58;100320.34;;;15.54;48.35
18749;BME280;9503;53.560;10.246;2023-04-25T12:46:25;100318.34;;;16.73;47.97
18749;BME280;9503;53.560;10.246;2023-04-25T12:48:53;100311.63;;;16.83;46.31
18749;BME280;9503;53.560;10.246;2023-04-25T12:51:20;100322.00;;;16.83;45.18
18749;BME280;9503;53.560;10.246;2023-04-25T12:53:50;100316.75;;;16.80;44.92
18749;BME280;9503;53.560;10.246;2023-04-25T12:56:17;100317.41;;;17.85;44.13
18749;BME280;9503;53.560;10.246;2023-04-25T12:58:45;100338.78;;;16.59;45.30
18749;BME280;9503;53.560;10.246;2023-04-25T13:01:13;100322.91;;;16.38;46.21
18749;BME280;9503;53.560;10.246;2023-04-25T13:03:40;100348.13;;;16.03;45.40
18749;BME280;9503;53.560;10.246;2023-04-25T13:06:07;100331.69;;;15.60;46.61
18749;BME280;9503;53.560;10.246;2023-04-25T13:08:34;100341.16;;;15.20;49.05
18749;BME280;9503;53.560;10.246;2023-04-25T13:11:02;100351.50;;;14.53;51.66
18749;BME280;9503;53.560;10.246;2023-04-25T13:13:28;100366.69;;;15.10;52.44
18749;BME280;9503;53.560;10.246;2023-04-25T13:15:58;100355.16;;;14.96;51.84
18749;BME280;9503;53.560;10.246;2023-04-25T13:18:24;100366.19;;;14.90;53.10
18749;BME280;9503;53.560;10.246;2023-04-25T13:20:52;100359.63;;;15.39;52.55
18749;BME280;9503;53.560;10.246;2023-04-25T13:23:19;100373.09;;;16.02;50.85
18749;BME280;9503;53.560;10.246;2023-04-25T13:25:45;100365.66;;;17.15;48.78
18749;BME280;9503;53.560;10.246;2023-04-25T13:28:12;100375.50;;;16.82;47.01
18749;BME280;9503;53.560;10.246;2023-04-25T13:30:40;100366.59;;;16.23;47.39
18749;BME280;9503;53.560;10.246;2023-04-25T13:33:08;100372.66;;;16.23;47.63
18749;BME280;9503;53.560;10.246;2023-04-25T13:35:36;100389.25;;;15.55;50.03
18749;BME280;9503;53.560;10.246;2023-04-25T13:38:03;100398.19;;;14.02;52.69
18749;BME280;9503;53.560;10.246;2023-04-25T13:40:30;100401.94;;;14.12;53.36